sensor_id;sensor_type;location;lat;lon;timestamp;temperature;humidity
41592;DHT22;28026;48.562;14.440;2023-01-09T00:02:07;1.10;99.90
41592;DHT22;28026;48.562;14.440;2023-01-09T00:04:38;0.60;99.90
41592;DHT22;28026;48.562;14.440;2023-01-09T00:07:10;0.80;99.90
41592;DHT22;28026;48.562;14.440;2023-01-09T00:09:41;1.00;99.90
41592;DHT22;28026;48.562;14.440;2023-01-09T00:12:12;1.10;99.90
41592;DHT22;28026;48.562;14.440;2023-01-09T00:14:43;1.20;99.90
41592;DHT22;28026;48.562;14.440;2023-01-09T00:17:14;1.20;99.90
41592;DHT22;28026;48.562;14.440;2023-01-09T00:19:45;1.30;99.90
41592;DHT22;28026;48.562;14.440;2023-01-09T00:22:15;1.40;99.90
41592;DHT22;28026;48.562;14.440;2023-01-09T00:24:46;1.20;99.90
41592;DHT22;28026;48.562;14.440;2023-01-09T00:27:18;1.00;99.90
41592;DHT22;28026;48.562;14.440;2023-01-09T00:29:49;1.00;99.90
41592;DHT22;28026;48.562;14.440;2023-01-09T00:32:20;1.10;99.90
41592;DHT22;28026;48.562;14.440;2023-01-09T00:34:51;1.20;99.90
41592;DHT22;28026;48.562;14.440;2023-01-09T00:37:23;1.20;99.90
41592;DHT22;28026;48.562;14.440;2023-01-09T00:39:54;1.60;99.90
41592;DHT22;28026;48.562;14.440;2023-01-09T00:42:28;1.70;99.90
41592;DHT22;28026;48.562;14.440;2023-01-09T00:45:13;1.80;99.90
41592;DHT22;28026;48.562;14.440;2023-01-09T00:47:51;1.90;99.90
41592;DHT22;28026;48.562;14.440;2023-01-09T00:50:25;2.00;99.90
41592;DHT22;28026;48.562;14.440;2023-01-09T00:53:09;2.10;99.90
41592;DHT22;28026;48.562;14.440;2023-01-09T00:55:46;2.20;99.90
41592;DHT22;28026;48.562;14.440;2023-01-09T00:58:17;2.30;99.90
41592;DHT22;28026;48.562;14.440;2023-01-09T01:00:49;2.50;99.90
41592;DHT22;28026;48.562;14.440;2023-01-09T01:03:20;2.40;99.90
41592;DHT22;28026;48.562;14.440;2023-01-09T01:05:50;2.60;99.90
41592;DHT22;28026;48.562;14.440;2023-01-09T01:08:40;2.40;99.90
41592;DHT22;28026;48.562;14.440;2023-01-09T01:11:11;2.20;99.90
41592;DHT22;28026;48.562;14.440;2023-01-09T01:13:42;1.90;99.90
41592;DHT22;28026;48.562;14.440;2023-01-09T01:16:13;1.80;99.90
41592;DHT22;28026;48.562;14.440;2023-01-09T01:18:44;1.80;99.90
41592;DHT22;28026;48.562;14.440;2023-01-09T01:21:16;1.90;99.90
41592;DHT22;28026;48.562;14.440;2023-01-09T01:23:47;2.00;99.90
41592;DHT22;28026;48.562;14.440;2023-01-09T01:26:18;2.10;99.90
41592;DHT22;28026;48.562;14.440;2023-01-09T01:28:49;2.20;99.90
41592;DHT22;28026;48.562;14.440;2023-01-09T01:31:20;2.30;99.90
41592;DHT22;28026;48.562;14.440;2023-01-09T01:33:51;2.30;99.90
41592;DHT22;28026;48.562;14.440;2023-01-09T01:36:22;2.40;99.90
41592;DHT22;28026;48.562;14.440;2023-01-09T01:38:52;2.50;99.90
41592;DHT22;28026;48.562;14.440;2023-01-09T01:41:23;2.50;99.90
41592;DHT22;28026;48.562;14.440;2023-01-09T01:44:03;2.60;99.90
41592;DHT22;28026;48.562;14.440;2023-01-09T01:46:56;2.40;99.90
41592;DHT22;28026;48.562;14.440;2023-01-09T01:49:27;1.80;99.90
41592;DHT22;28026;48.562;14.440;2023-01-09T01:51:58;2.00;99.90
41592;DHT22;28026;48.562;14.440;2023-01-09T01:54:31;1.90;99.90
41592;DHT22;28026;48.562;14.440;2023-01-09T01:57:03;1.90;99.90
41592;DHT22;28026;48.562;14.440;2023-01-09T01:59:40;2.00;99.90
41592;DHT22;28026;48.562;14.440;2023-01-09T02:02:25;2.00;99.90
41592;DHT22;28026;48.562;14.440;2023-01-09T02:05:01;2.10;99.90
41592;DHT22;28026;48.562;14.440;2023-01-09T02:07:32;2.10;99.90
41592;DHT22;28026;48.562;14.440;2023-01-09T02:10:04;2.10;99.90
41592;DHT22;28026;48.562;14.440;2023-01-09T02:12:36;2.10;99.90
41592;DHT22;28026;48.562;14.440;2023-01-09T02:15:12;2.20;99.90
41592;DHT22;28026;48.562;14.440;2023-01-09T02:18:07;2.20;99.90
41592;DHT22;28026;48.562;14.440;2023-01-09T02:30:29;2.00;99.90
41592;DHT22;28026;48.562;14.440;2023-01-09T02:37:05;2.00;99.90
41592;DHT22;28026;48.562;14.440;2023-01-09T02:43:12;2.00;99.90
41592;DHT22;28026;48.562;14.440;2023-01-09T02:45:44;2.10;99.90
41592;DHT22;28026;48.562;14.440;2023-01-09T02:48:15;2.10;99.90
41592;DHT22;28026;48.562;14.440;2023-01-09T02:57:27;1.80;99.90
41592;DHT22;28026;48.562;14.440;2023-01-09T03:03:45;1.60;99.90
41592;DHT22;28026;48.562;14.440;2023-01-09T03:09:30;1.60;99.90
41592;DHT22;28026;48.562;14.440;2023-01-09T03:12:15;1.80;99.90
41592;DHT22;28026;48.562;14.440;2023-01-09T03:14:56;1.90;99.90
41592;DHT22;28026;48.562;14.440;2023-01-09T03:17:36;1.90;99.90
41592;DHT22;28026;48.562;14.440;2023-01-09T03:20:16;2.10;99.90
41592;DHT22;28026;48.562;14.440;2023-01-09T03:22:54;2.00;99.90
41592;DHT22;28026;48.562;14.440;2023-01-09T03:25:29;2.00;99.90
41592;DHT22;28026;48.562;14.440;2023-01-09T03:28:04;2.10;99.90
41592;DHT22;28026;48.562;14.440;2023-01-09T03:30:38;2.10;99.90
41592;DHT22;28026;48.562;14.440;2023-01-09T03:33:09;2.10;99.90
41592;DHT22;28026;48.562;14.440;2023-01-09T03:35:40;2.10;99.90
41592;DHT22;28026;48.562;14.440;2023-01-09T03:38:11;2.20;99.90
41592;DHT22;28026;48.562;14.440;2023-01-09T03:40:42;2.20;99.90
41592;DHT22;28026;48.562;14.440;2023-01-09T03:43:13;2.20;99.90
41592;DHT22;28026;48.562;14.440;2023-01-09T03:45:44;2.30;99.90
41592;DHT22;28026;48.562;14.440;2023-01-09T03:48:14;2.20;99.90
41592;DHT22;28026;48.562;14.440;2023-01-09T03:50:48;2.30;99.90
41592;DHT22;28026;48.562;14.440;2023-01-09T03:53:22;2.30;99.90
41592;DHT22;28026;48.562;14.440;2023-01-09T03:55:56;2.00;99.90
41592;DHT22;28026;48.562;14.440;2023-01-09T03:58:28;2.00;99.90
41592;DHT22;28026;48.562;14.440;2023-01-09T04:01:01;2.40;99.90
41592;DHT22;28026;48.562;14.440;2023-01-09T04:03:34;2.40;99.90
41592;DHT22;28026;48.562;14.440;2023-01-09T04:06:06;2.10;99.90
41592;DHT22;28026;48.562;14.440;2023-01-09T04:08:37;1.80;99.90
41592;DHT22;28026;48.562;14.440;2023-01-09T04:11:08;1.90;99.90
41592;DHT22;28026;48.562;14.440;2023-01-09T04:13:39;1.90;99.90
41592;DHT22;28026;48.562;14.440;2023-01-09T04:16:10;1.90;99.90
41592;DHT22;28026;48.562;14.440;2023-01-09T04:18:41;1.90;99.90
41592;DHT22;28026;48.562;14.440;2023-01-09T04:21:11;2.20;99.90
41592;DHT22;28026;48.562;14.440;2023-01-09T04:23:42;2.60;99.90
41592;DHT22;28026;48.562;14.440;2023-01-09T04:26:14;2.80;99.90
41592;DHT22;28026;48.562;14.440;2023-01-09T04:28:46;2.70;99.90
41592;DHT22;28026;48.562;14.440;2023-01-09T04:31:17;2.60;99.90
41592;DHT22;28026;48.562;14.440;2023-01-09T04:33:47;2.50;99.90
41592;DHT22;28026;48.562;14.440;2023-01-09T04:36:18;2.60;99.90
41592;DHT22;28026;48.562;14.440;2023-01-09T04:38:49;2.50;99.90
41592;DHT22;28026;48.562;14.440;2023-01-09T04:41:20;2.40;99.90
41592;DHT22;28026;48.562;14.440;2023-01-09T04:44:10;2.20;99.90
41592;DHT22;28026;48.562;14.440;2023-01-09T04:46:40;2.00;99.90
41592;DHT22;28026;48.562;14.440;2023-01-09T04:49:12;2.00;99.90
41592;DHT22;28026;48.562;14.440;2023-01-09T04:51:43;1.90;99.90
41592;DHT22;28026;48.562;14.440;2023-01-09T04:54:14;1.90;99.90
41592;DHT22;28026;48.562;14.440;2023-01-09T04:56:46;1.90;99.90
41592;DHT22;28026;48.562;14.440;2023-01-09T04:59:17;1.80;99.90
41592;DHT22;28026;48.562;14.440;2023-01-09T05:01:48;2.00;99.90
41592;DHT22;28026;48.562;14.440;2023-01-09T05:04:21;2.20;99.90
41592;DHT22;28026;48.562;14.440;2023-01-09T05:06:52;2.40;99.90
41592;DHT22;28026;48.562;14.440;2023-01-09T05:09:23;2.40;99.90
41592;DHT22;28026;48.562;14.440;2023-01-09T05:11:54;2.50;99.90
41592;DHT22;28026;48.562;14.440;2023-01-09T05:14:25;2.70;99.90
41592;DHT22;28026;48.562;14.440;2023-01-09T05:16:55;2.60;99.90
41592;DHT22;28026;48.562;14.440;2023-01-09T05:19:26;2.50;99.90
41592;DHT22;28026;48.562;14.440;2023-01-09T05:21:57;2.50;99.90
41592;DHT22;28026;48.562;14.440;2023-01-09T05:24:28;2.40;99.90
41592;DHT22;28026;48.562;14.440;2023-01-09T05:26:59;2.20;99.90
41592;DHT22;28026;48.562;14.440;2023-01-09T05:29:32;2.10;99.90
41592;DHT22;28026;48.562;14.440;2023-01-09T05:32:03;2.10;99.90
41592;DHT22;28026;48.562;14.440;2023-01-09T05:34:34;1.90;99.90
41592;DHT22;28026;48.562;14.440;2023-01-09T05:37:05;2.00;99.90
41592;DHT22;28026;48.562;14.440;2023-01-09T05:39:35;2.00;99.90
41592;DHT22;28026;48.562;14.440;2023-01-09T05:42:06;2.10;99.90
41592;DHT22;28026;48.562;14.440;2023-01-09T05:44:37;1.90;99.90
41592;DHT22;28026;48.562;14.440;2023-01-09T05:47:08;1.90;99.90
41592;DHT22;28026;48.562;14.440;2023-01-09T05:49:39;2.00;99.90
41592;DHT22;28026;48.562;14.440;2023-01-09T05:52:10;1.90;99.90
41592;DHT22;28026;48.562;14.440;2023-01-09T05:54:41;2.00;99.90
41592;DHT22;28026;48.562;14.440;2023-01-09T05:57:12;2.00;99.90
41592;DHT22;28026;48.562;14.440;2023-01-09T05:59:43;2.10;99.90
41592;DHT22;28026;48.562;14.440;2023-01-09T06:02:14;2.10;99.90
41592;DHT22;28026;48.562;14.440;2023-01-09T06:04:44;2.10;99.90
41592;DHT22;28026;48.562;14.440;2023-01-09T06:07:15;2.10;99.90
41592;DHT22;28026;48.562;14.440;2023-01-09T06:09:46;2.00;99.90
41592;DHT22;28026;48.562;14.440;2023-01-09T06:12:17;2.10;99.90
41592;DHT22;28026;48.562;14.440;2023-01-09T06:14:48;2.10;99.90
41592;DHT22;28026;48.562;14.440;2023-01-09T06:17:19;2.10;99.90
41592;DHT22;28026;48.562;14.440;2023-01-09T06:19:50;2.10;99.90
41592;DHT22;28026;48.562;14.440;2023-01-09T06:22:21;2.10;99.90
41592;DHT22;28026;48.562;14.440;2023-01-09T06:24:52;2.10;99.90
41592;DHT22;28026;48.562;14.440;2023-01-09T06:27:23;2.10;99.90
41592;DHT22;28026;48.562;14.440;2023-01-09T06:29:53;2.20;99.90
41592;DHT22;28026;48.562;14.440;2023-01-09T06:32:24;2.20;99.90
41592;DHT22;28026;48.562;14.440;2023-01-09T06:34:55;2.20;99.90
41592;DHT22;28026;48.562;14.440;2023-01-09T06:37:26;2.20;99.90
41592;DHT22;28026;48.562;14.440;2023-01-09T06:39:57;2.20;99.90
41592;DHT22;28026;48.562;14.440;2023-01-09T06:42:28;2.20;99.90
41592;DHT22;28026;48.562;14.440;2023-01-09T06:44:59;2.10;99.90
41592;DHT22;28026;48.562;14.440;2023-01-09T06:47:30;2.10;99.90
41592;DHT22;28026;48.562;14.440;2023-01-09T06:50:01;2.00;99.90
41592;DHT22;28026;48.562;14.440;2023-01-09T06:52:32;2.00;99.90
41592;DHT22;28026;48.562;14.440;2023-01-09T06:55:03;1.90;99.90
41592;DHT22;28026;48.562;14.440;2023-01-09T06:57:35;2.00;99.90
41592;DHT22;28026;48.562;14.440;2023-01-09T07:00:06;2.00;99.90
41592;DHT22;28026;48.562;14.440;2023-01-09T07:02:37;2.10;99.90
41592;DHT22;28026;48.562;14.440;2023-01-09T07:05:09;2.00;99.90
41592;DHT22;28026;48.562;14.440;2023-01-09T07:07:41;2.10;99.90
41592;DHT22;28026;48.562;14.440;2023-01-09T07:10:12;2.10;99.90
41592;DHT22;28026;48.562;14.440;2023-01-09T07:12:44;2.10;99.90
41592;DHT22;28026;48.562;14.440;2023-01-09T07:15:15;2.10;99.90
41592;DHT22;28026;48.562;14.440;2023-01-09T07:17:47;2.10;99.90
41592;DHT22;28026;48.562;14.440;2023-01-09T07:20:20;2.00;99.90
41592;DHT22;28026;48.562;14.440;2023-01-09T07:22:51;2.10;99.90
41592;DHT22;28026;48.562;14.440;2023-01-09T07:25:23;2.10;99.90
41592;DHT22;28026;48.562;14.440;2023-01-09T07:27:54;2.10;99.90
41592;DHT22;28026;48.562;14.440;2023-01-09T07:30:25;2.00;99.90
41592;DHT22;28026;48.562;14.440;2023-01-09T07:32:56;1.90;99.90
41592;DHT22;28026;48.562;14.440;2023-01-09T07:35:27;1.90;99.90
41592;DHT22;28026;48.562;14.440;2023-01-09T07:37:58;1.90;99.90
41592;DHT22;28026;48.562;14.440;2023-01-09T07:40:29;1.90;99.90
41592;DHT22;28026;48.562;14.440;2023-01-09T07:42:59;1.80;99.90
41592;DHT22;28026;48.562;14.440;2023-01-09T07:45:30;1.90;99.90
41592;DHT22;28026;48.562;14.440;2023-01-09T07:48:01;1.80;99.90
41592;DHT22;28026;48.562;14.440;2023-01-09T07:50:32;1.80;99.90
41592;DHT22;28026;48.562;14.440;2023-01-09T07:53:03;1.90;99.90
41592;DHT22;28026;48.562;14.440;2023-01-09T07:55:37;1.90;99.90
41592;DHT22;28026;48.562;14.440;2023-01-09T07:58:07;1.80;99.90
41592;DHT22;28026;48.562;14.440;2023-01-09T08:00:38;1.80;99.90
41592;DHT22;28026;48.562;14.440;2023-01-09T08:03:09;1.80;99.90
41592;DHT22;28026;48.562;14.440;2023-01-09T08:05:40;1.80;99.90
41592;DHT22;28026;48.562;14.440;2023-01-09T08:08:11;1.90;99.90
41592;DHT22;28026;48.562;14.440;2023-01-09T08:10:44;2.10;99.90
41592;DHT22;28026;48.562;14.440;2023-01-09T08:13:15;2.20;99.90
41592;DHT22;28026;48.562;14.440;2023-01-09T08:15:46;2.30;99.90
41592;DHT22;28026;48.562;14.440;2023-01-09T08:18:17;2.50;99.90
41592;DHT22;28026;48.562;14.440;2023-01-09T08:20:48;2.70;99.90
41592;DHT22;28026;48.562;14.440;2023-01-09T08:23:19;2.90;99.90
41592;DHT22;28026;48.562;14.440;2023-01-09T08:25:52;3.00;99.90
41592;DHT22;28026;48.562;14.440;2023-01-09T08:28:23;3.00;99.90
41592;DHT22;28026;48.562;14.440;2023-01-09T08:30:54;3.10;99.90
41592;DHT22;28026;48.562;14.440;2023-01-09T08:33:25;3.20;99.90
41592;DHT22;28026;48.562;14.440;2023-01-09T08:35:56;3.30;99.90
41592;DHT22;28026;48.562;14.440;2023-01-09T08:38:28;3.20;99.90
41592;DHT22;28026;48.562;14.440;2023-01-09T08:40:59;3.30;99.90
41592;DHT22;28026;48.562;14.440;2023-01-09T08:43:49;3.30;99.90
41592;DHT22;28026;48.562;14.440;2023-01-09T08:46:39;3.20;99.90
41592;DHT22;28026;48.562;14.440;2023-01-09T08:49:31;3.40;99.90
41592;DHT22;28026;48.562;14.440;2023-01-09T08:52:07;3.30;99.90
41592;DHT22;28026;48.562;14.440;2023-01-09T08:54:38;3.40;99.90
41592;DHT22;28026;48.562;14.440;2023-01-09T08:57:09;3.40;99.90
41592;DHT22;28026;48.562;14.440;2023-01-09T08:59:40;3.30;99.90
41592;DHT22;28026;48.562;14.440;2023-01-09T09:02:11;3.30;99.90
41592;DHT22;28026;48.562;14.440;2023-01-09T09:04:41;3.40;99.90
41592;DHT22;28026;48.562;14.440;2023-01-09T09:07:13;3.50;99.90
41592;DHT22;28026;48.562;14.440;2023-01-09T09:09:44;3.50;99.90
41592;DHT22;28026;48.562;14.440;2023-01-09T09:12:14;3.50;99.90
41592;DHT22;28026;48.562;14.440;2023-01-09T09:14:45;3.50;99.90
41592;DHT22;28026;48.562;14.440;2023-01-09T09:17:35;3.50;99.90
41592;DHT22;28026;48.562;14.440;2023-01-09T09:20:07;3.50;99.90
41592;DHT22;28026;48.562;14.440;2023-01-09T09:22:39;3.50;99.90
41592;DHT22;28026;48.562;14.440;2023-01-09T09:25:10;3.60;99.90
41592;DHT22;28026;48.562;14.440;2023-01-09T09:27:41;3.60;99.90
41592;DHT22;28026;48.562;14.440;2023-01-09T09:30:15;3.60;99.90
41592;DHT22;28026;48.562;14.440;2023-01-09T09:32:48;3.60;99.90
41592;DHT22;28026;48.562;14.440;2023-01-09T09:35:20;3.50;99.90
41592;DHT22;28026;48.562;14.440;2023-01-09T09:38:00;3.60;99.90
41592;DHT22;28026;48.562;14.440;2023-01-09T09:40:50;3.60;99.90
41592;DHT22;28026;48.562;14.440;2023-01-09T09:44:44;3.60;99.90
41592;DHT22;28026;48.562;14.440;2023-01-09T09:54:06;3.50;99.90
41592;DHT22;28026;48.562;14.440;2023-01-09T09:56:55;3.50;99.90
41592;DHT22;28026;48.562;14.440;2023-01-09T09:59:35;3.50;99.90
41592;DHT22;28026;48.562;14.440;2023-01-09T10:02:24;3.60;99.90
41592;DHT22;28026;48.562;14.440;2023-01-09T10:05:11;3.60;99.90
41592;DHT22;28026;48.562;14.440;2023-01-09T10:07:52;3.60;99.90
41592;DHT22;28026;48.562;14.440;2023-01-09T10:10:36;3.70;99.90
41592;DHT22;28026;48.562;14.440;2023-01-09T10:13:18;3.60;99.90
41592;DHT22;28026;48.562;14.440;2023-01-09T10:23:12;3.70;99.90
41592;DHT22;28026;48.562;14.440;2023-01-09T10:26:22;3.70;99.90
41592;DHT22;28026;48.562;14.440;2023-01-09T10:32:45;3.80;99.90
41592;DHT22;28026;48.562;14.440;2023-01-09T10:38:50;3.80;99.90
41592;DHT22;28026;48.562;14.440;2023-01-09T10:41:38;3.80;99.90
41592;DHT22;28026;48.562;14.440;2023-01-09T10:44:35;3.90;99.90
41592;DHT22;28026;48.562;14.440;2023-01-09T10:47:28;3.90;99.90
41592;DHT22;28026;48.562;14.440;2023-01-09T10:50:21;3.90;99.90
41592;DHT22;28026;48.562;14.440;2023-01-09T10:52:56;4.00;99.90
41592;DHT22;28026;48.562;14.440;2023-01-09T10:55:38;3.90;99.90
41592;DHT22;28026;48.562;14.440;2023-01-09T10:58:17;3.90;99.90
41592;DHT22;28026;48.562;14.440;2023-01-09T11:00:51;3.90;99.90
41592;DHT22;28026;48.562;14.440;2023-01-09T11:03:22;3.90;99.90
41592;DHT22;28026;48.562;14.440;2023-01-09T11:05:58;3.90;99.90
41592;DHT22;28026;48.562;14.440;2023-01-09T11:08:41;3.90;99.90
41592;DHT22;28026;48.562;14.440;2023-01-09T11:11:34;3.80;99.90
41592;DHT22;28026;48.562;14.440;2023-01-09T11:17:01;3.80;99.90
41592;DHT22;28026;48.562;14.440;2023-01-09T11:19:33;3.80;99.90
41592;DHT22;28026;48.562;14.440;2023-01-09T11:22:08;3.90;99.90
41592;DHT22;28026;48.562;14.440;2023-01-09T11:24:59;3.80;99.90
41592;DHT22;28026;48.562;14.440;2023-01-09T11:27:32;3.80;99.90
41592;DHT22;28026;48.562;14.440;2023-01-09T11:30:16;3.80;99.90
41592;DHT22;28026;48.562;14.440;2023-01-09T11:32:57;3.80;99.90
41592;DHT22;28026;48.562;14.440;2023-01-09T11:35:32;3.70;99.90
41592;DHT22;28026;48.562;14.440;2023-01-09T11:38:14;3.70;99.90
41592;DHT22;28026;48.562;14.440;2023-01-09T11:40:56;3.60;99.90
41592;DHT22;28026;48.562;14.440;2023-01-09T11:43:38;3.60;99.90
41592;DHT22;28026;48.562;14.440;2023-01-09T11:46:35;3.50;99.90
41592;DHT22;28026;48.562;14.440;2023-01-09T11:52:19;3.50;99.90
41592;DHT22;28026;48.562;14.440;2023-01-09T11:54:54;3.50;99.90
41592;DHT22;28026;48.562;14.440;2023-01-09T11:57:33;3.30;99.90
41592;DHT22;28026;48.562;14.440;2023-01-09T12:00:26;3.40;99.90
41592;DHT22;28026;48.562;14.440;2023-01-09T12:09:42;3.50;99.90
41592;DHT22;28026;48.562;14.440;2023-01-09T12:22:00;3.60;99.90
41592;DHT22;28026;48.562;14.440;2023-01-09T12:40:47;3.80;99.90
41592;DHT22;28026;48.562;14.440;2023-01-09T12:50:21;3.70;99.90
41592;DHT22;28026;48.562;14.440;2023-01-09T12:53:26;3.70;99.90
41592;DHT22;28026;48.562;14.440;2023-01-09T12:56:24;3.70;99.90
41592;DHT22;28026;48.562;14.440;2023-01-09T13:06:00;3.60;99.90
41592;DHT22;28026;48.562;14.440;2023-01-09T13:08:40;3.70;99.90
41592;DHT22;28026;48.562;14.440;2023-01-09T13:11:27;3.50;99.90
41592;DHT22;28026;48.562;14.440;2023-01-09T13:18:18;3.70;99.90
41592;DHT22;28026;48.562;14.440;2023-01-09T13:20:58;3.70;99.90
41592;DHT22;28026;48.562;14.440;2023-01-09T13:23:45;3.70;99.90
41592;DHT22;28026;48.562;14.440;2023-01-09T13:26:43;3.80;99.90
41592;DHT22;28026;48.562;14.440;2023-01-09T13:35:33;3.90;99.90
41592;DHT22;28026;48.562;14.440;2023-01-09T13:38:04;3.80;99.90
41592;DHT22;28026;48.562;14.440;2023-01-09T13:40:35;3.80;99.90
41592;DHT22;28026;48.562;14.440;2023-01-09T13:43:07;3.80;99.90
41592;DHT22;28026;48.562;14.440;2023-01-09T13:45:39;3.70;99.90
41592;DHT22;28026;48.562;14.440;2023-01-09T13:50:47;3.70;99.90
41592;DHT22;28026;48.562;14.440;2023-01-09T13:58:29;3.70;99.90
41592;DHT22;28026;48.562;14.440;2023-01-09T14:06:40;3.50;99.90
41592;DHT22;28026;48.562;14.440;2023-01-09T14:09:23;3.40;99.90
41592;DHT22;28026;48.562;14.440;2023-01-09T14:12:04;3.40;99.90
41592;DHT22;28026;48.562;14.440;2023-01-09T14:14:36;3.40;99.90
41592;DHT22;28026;48.562;14.440;2023-01-09T14:17:22;3.30;99.90
41592;DHT22;28026;48.562;14.440;2023-01-09T14:20:07;3.40;99.90
41592;DHT22;28026;48.562;14.440;2023-01-09T14:22:57;3.40;99.90
41592;DHT22;28026;48.562;14.440;2023-01-09T14:25:30;3.30;99.90
41592;DHT22;28026;48.562;14.440;2023-01-09T14:28:05;3.30;99.90
41592;DHT22;28026;48.562;14.440;2023-01-09T14:33:30;3.30;99.90
41592;DHT22;28026;48.562;14.440;2023-01-09T14:36:13;3.30;99.90
41592;DHT22;28026;48.562;14.440;2023-01-09T14:39:01;3.40;99.90
41592;DHT22;28026;48.562;14.440;2023-01-09T14:41:49;3.30;99.90
41592;DHT22;28026;48.562;14.440;2023-01-09T14:47:23;3.30;99.90
41592;DHT22;28026;48.562;14.440;2023-01-09T14:56:02;3.20;99.90
41592;DHT22;28026;48.562;14.440;2023-01-09T14:58:37;3.30;99.90
41592;DHT22;28026;48.562;14.440;2023-01-09T15:01:17;3.20;99.90
41592;DHT22;28026;48.562;14.440;2023-01-09T15:04:02;3.20;99.90
41592;DHT22;28026;48.562;14.440;2023-01-09T15:06:48;3.30;99.90
41592;DHT22;28026;48.562;14.440;2023-01-09T15:09:42;3.30;99.90
41592;DHT22;28026;48.562;14.440;2023-01-09T15:12:20;3.20;99.90
41592;DHT22;28026;48.562;14.440;2023-01-09T15:14:56;3.20;99.90
41592;DHT22;28026;48.562;14.440;2023-01-09T15:17:33;3.20;99.90
41592;DHT22;28026;48.562;14.440;2023-01-09T15:20:07;3.20;99.90
41592;DHT22;28026;48.562;14.440;2023-01-09T15:22:50;3.20;99.90
41592;DHT22;28026;48.562;14.440;2023-01-09T15:27:58;3.20;99.90
41592;DHT22;28026;48.562;14.440;2023-01-09T15:30:33;3.20;99.90
41592;DHT22;28026;48.562;14.440;2023-01-09T15:33:11;3.20;99.90
41592;DHT22;28026;48.562;14.440;2023-01-09T15:35:49;3.20;99.90
41592;DHT22;28026;48.562;14.440;2023-01-09T15:38:22;3.20;99.90
41592;DHT22;28026;48.562;14.440;2023-01-09T15:41:05;3.20;99.90
41592;DHT22;28026;48.562;14.440;2023-01-09T15:43:42;3.30;99.90
41592;DHT22;28026;48.562;14.440;2023-01-09T15:46:14;3.20;99.90
41592;DHT22;28026;48.562;14.440;2023-01-09T15:48:52;3.20;99.90
41592;DHT22;28026;48.562;14.440;2023-01-09T15:51:24;3.20;99.90
41592;DHT22;28026;48.562;14.440;2023-01-09T15:53:56;3.30;99.90
41592;DHT22;28026;48.562;14.440;2023-01-09T15:56:30;3.20;99.90
41592;DHT22;28026;48.562;14.440;2023-01-09T15:59:26;3.10;99.90
41592;DHT22;28026;48.562;14.440;2023-01-09T16:02:00;3.10;99.90
41592;DHT22;28026;48.562;14.440;2023-01-09T16:04:54;3.10;99.90
41592;DHT22;28026;48.562;14.440;2023-01-09T16:07:25;3.10;99.90
41592;DHT22;28026;48.562;14.440;2023-01-09T16:09:56;3.10;99.90
41592;DHT22;28026;48.562;14.440;2023-01-09T16:12:28;3.10;99.90
41592;DHT22;28026;48.562;14.440;2023-01-09T16:15:00;3.10;99.90
41592;DHT22;28026;48.562;14.440;2023-01-09T16:17:31;3.10;99.90
41592;DHT22;28026;48.562;14.440;2023-01-09T16:20:14;3.00;99.90
41592;DHT22;28026;48.562;14.440;2023-01-09T16:22:55;3.10;99.90
41592;DHT22;28026;48.562;14.440;2023-01-09T16:25:32;3.10;99.90
41592;DHT22;28026;48.562;14.440;2023-01-09T16:31:00;3.00;99.90
41592;DHT22;28026;48.562;14.440;2023-01-09T16:33:44;3.10;99.90
41592;DHT22;28026;48.562;14.440;2023-01-09T16:36:19;2.90;99.90
41592;DHT22;28026;48.562;14.440;2023-01-09T16:38:53;3.00;99.90
41592;DHT22;28026;48.562;14.440;2023-01-09T16:41:25;2.90;99.90
41592;DHT22;28026;48.562;14.440;2023-01-09T16:44:15;3.00;99.90
41592;DHT22;28026;48.562;14.440;2023-01-09T16:46:48;3.00;99.90
41592;DHT22;28026;48.562;14.440;2023-01-09T16:49:23;2.90;99.90
41592;DHT22;28026;48.562;14.440;2023-01-09T16:51:57;2.90;99.90
41592;DHT22;28026;48.562;14.440;2023-01-09T16:54:32;2.80;99.90
41592;DHT22;28026;48.562;14.440;2023-01-09T16:57:03;2.80;99.90
41592;DHT22;28026;48.562;14.440;2023-01-09T16:59:34;2.80;99.90
41592;DHT22;28026;48.562;14.440;2023-01-09T17:02:17;2.80;99.90
41592;DHT22;28026;48.562;14.440;2023-01-09T17:04:49;2.80;99.90
41592;DHT22;28026;48.562;14.440;2023-01-09T17:07:22;2.70;99.90
41592;DHT22;28026;48.562;14.440;2023-01-09T17:09:57;2.80;99.90
41592;DHT22;28026;48.562;14.440;2023-01-09T17:12:28;2.80;99.90
41592;DHT22;28026;48.562;14.440;2023-01-09T17:14:59;2.70;99.90
41592;DHT22;28026;48.562;14.440;2023-01-09T17:17:31;2.70;99.90
41592;DHT22;28026;48.562;14.440;2023-01-09T17:20:02;2.70;99.90
41592;DHT22;28026;48.562;14.440;2023-01-09T17:22:46;2.70;99.90
41592;DHT22;28026;48.562;14.440;2023-01-09T17:25:17;2.60;99.90
41592;DHT22;28026;48.562;14.440;2023-01-09T17:28:11;2.80;99.90
41592;DHT22;28026;48.562;14.440;2023-01-09T17:31:06;2.80;99.90
41592;DHT22;28026;48.562;14.440;2023-01-09T17:33:41;2.80;99.90
41592;DHT22;28026;48.562;14.440;2023-01-09T17:39:03;2.90;99.90
41592;DHT22;28026;48.562;14.440;2023-01-09T17:41:34;3.00;99.90
41592;DHT22;28026;48.562;14.440;2023-01-09T17:44:05;2.90;99.90
41592;DHT22;28026;48.562;14.440;2023-01-09T17:46:39;2.90;99.90
41592;DHT22;28026;48.562;14.440;2023-01-09T17:49:19;2.90;99.90
41592;DHT22;28026;48.562;14.440;2023-01-09T17:51:51;2.90;99.90
41592;DHT22;28026;48.562;14.440;2023-01-09T17:54:22;2.80;99.90
41592;DHT22;28026;48.562;14.440;2023-01-09T17:56:54;2.60;99.90
41592;DHT22;28026;48.562;14.440;2023-01-09T17:59:25;2.40;99.90
41592;DHT22;28026;48.562;14.440;2023-01-09T18:01:56;2.40;99.90
41592;DHT22;28026;48.562;14.440;2023-01-09T18:04:27;2.40;99.90
41592;DHT22;28026;48.562;14.440;2023-01-09T18:06:58;2.40;99.90
41592;DHT22;28026;48.562;14.440;2023-01-09T18:09:32;2.50;99.90
41592;DHT22;28026;48.562;14.440;2023-01-09T18:12:03;2.50;99.90
41592;DHT22;28026;48.562;14.440;2023-01-09T18:14:34;2.50;99.90
41592;DHT22;28026;48.562;14.440;2023-01-09T18:17:10;2.50;99.90
41592;DHT22;28026;48.562;14.440;2023-01-09T18:19:42;2.60;99.90
41592;DHT22;28026;48.562;14.440;2023-01-09T18:22:13;2.60;99.90
41592;DHT22;28026;48.562;14.440;2023-01-09T18:24:44;2.60;99.90
41592;DHT22;28026;48.562;14.440;2023-01-09T18:27:15;2.60;99.90
41592;DHT22;28026;48.562;14.440;2023-01-09T18:29:46;2.60;99.90
41592;DHT22;28026;48.562;14.440;2023-01-09T18:32:17;2.60;99.90
41592;DHT22;28026;48.562;14.440;2023-01-09T18:34:47;2.60;99.90
41592;DHT22;28026;48.562;14.440;2023-01-09T18:37:18;2.60;99.90
41592;DHT22;28026;48.562;14.440;2023-01-09T18:39:49;2.60;99.90
41592;DHT22;28026;48.562;14.440;2023-01-09T18:42:20;2.50;99.90
41592;DHT22;28026;48.562;14.440;2023-01-09T18:44:51;2.50;99.90
41592;DHT22;28026;48.562;14.440;2023-01-09T18:47:22;2.60;99.90
41592;DHT22;28026;48.562;14.440;2023-01-09T18:49:53;2.60;99.90